AirNav   Bose ProFlight Series 2 Headset
 
 1340 users online  

IA79 Palo Alto County Hospital Heliport
Emmetsburg, Iowa, USA

GOING TO EMMETSBURG?


FAA INFORMATION EFFECTIVE 30 JANUARY 2020

Location

FAA Identifier: IA79
Lat/Long: 43-07-14.4800N 094-41-32.9200W
43-07.241333N 094-41.548667W
43.1206889,-94.6924778
(estimated)
Elevation: 1210 ft. / 369 m
Variation: 03E (2000)
Time zone: UTC -6 (UTC -5 during Daylight Saving Time)
Zip code: 50536

Heliport Operations

Heliport use: Private use. Permission required prior to landing
Activation date: 04/2002
Control tower: no
ARTCC: MINNEAPOLIS CENTER
FSS: FORT DODGE FLIGHT SERVICE STATION
Attendance: UNATNDD
Segmented circle: no

Heliport Communications

WX ASOS at EST (17 nm N): 121.425 (712-362-7250)
WX AWOS-3 at AXA (19 nm E): 118.475 (515-295-9634)

Nearby radio navigation aids

VOR radial/distance  VOR name  Freq  Var
SPWr091/22.4SPENCER VOR/DME110.0005E
FODr323/35.2FORT DODGE VORTAC113.5007E

 
NDB name  Hdg/Dist  Freq  Var  ID
EMMETSBURG026/1.441004EEGQ . --. --.-
PUFF171/14.034501EPUF .--. ..- ..-.
POCAHONTAS353/22.542802EPOH .--. --- ....

Heliport Services

Runway Information

Helipad H1

Dimensions: 60 x 60 ft. / 18 x 18 m
Surface: concrete
Runway edge lights: PERI
Runway edge markings: RED H IN CENTERR
Latitude: 43-07.241333N
Longitude: 094-41.548667W
Elevation: 1210.0 ft.
Traffic pattern: leftleft

Heliport Ownership and Management from official FAA records

Ownership: Privately-owned
Owner: PALO ALTO COUNTY HOSPITAL
3201 1ST STREET
EMMETSBURG, IA 50536
Manager: BRETT ANTEZAK
3201 1ST STREET
EMMETSBURG, IA 50536
Phone 712-852-5500
ADDITIONAL CONTACT: SHERYL DARLING 712-852-5464

Additional Remarks

A52-H1 14 FT BLDG 75' 'NW' & 38 FT TREE 125 'E' OF HELIPAD.
FOR CD CTC MINNEAPOLIS ARTCC AT 651-463-5588.

Instrument Procedures

There are no published instrument procedures at IA79.

Some nearby airports with instrument procedures:

KEGQ - Emmetsburg Municipal Airport (1 nm SW)
KEST - Estherville Municipal Airport (17 nm N)
KAXA - Algona Municipal Airport (19 nm E)
KSPW - Spencer Municipal Airport (23 nm W)
KPOH - Pocahontas Municipal Airport (23 nm S)
 
Loc | Ops | Rwys | IFR | FBO | Links
Com | Nav | Svcs | Stats | Notes
Area around IA79 (Palo Alto County Hospital Heliport)
 
Road maps at: MapQuest Bing Google
 
Aerial photo
No photo
 
Sectional chart

 
Airport distance calculator
Flying to Palo Alto County Hospital Heliport? Find the distance to fly.

From to IA79

Sunrise and sunset
Times for 17-Feb-2020
 Local
(UTC-6)
 Zulu
(UTC)
Morning civil twilight06:4612:46
Sunrise07:1513:15
Sunset17:5123:51
Evening civil twilight18:2000:20

Current date and time
Zulu (UTC)  17-Feb-2020 17:49:51
Local (UTC-6)  17-Feb-2020 11:49:51
 
METAR
KEST 
17nm N 
171652Z AUTO 14006KT 2SM BR OVC003 00/00 A2980 RMK AO2 UPB29E43 SLP109 P0000 T00000000
KAXA 
19nm E 
171735Z AUTO 16004KT 1 1/2SM BR BKN004 BKN029 01/01 A2982 RMK A01
KSPW 
23nm W 
171715Z AUTO 15009KT 8SM BKN005 BKN022 OVC028 03/01 A2979 RMK AO2 T00280011 $
KMJQ 
33nm N 
171655Z AUTO 16005KT 5SM BKN018 OVC026 02/01 A2980 RMK AO2 P0003 PWINO
KFRM 
33nm N 
171656Z AUTO 16013KT 7SM FEW006 SCT030 OVC085 01/00 A2982 RMK AO2 SLP116 T00110000 FZRANO
TAF
KFOD 
42nm SE 
171501Z 1715/1812 15005KT 3SM -RA OVC020 FM171700 14006KT P6SM VCSH OVC010 FM172300 33012KT P6SM OVC008 FM180200 33014G24KT P6SM OVC010
NOTAMs
Click for the latest NOTAMs
NOTAMs are issued by the DoD/FAA and will open in a separate window not controlled by AirNav.

 

 
 

Would you like to see your business listed on this page?

 If your business provides an interesting product or service to pilots, flight crews, aircraft, or users of the Palo Alto County Hospital Heliport, you should consider listing it here.  To start the listing process, click on the button below
 
Add a business
 

Other Pages about Palo Alto County Hospital Heliport

Update a link
 
Copyright © AirNav, LLC. All rights reserved. Privacy Policy  Contact